Time;durP1;ratioP1;P1;durP2;ratioP2;P2;SDS_P1;SDS_P2;PMS_P1;PMS_P2;Temp;Humidity;BMP_temperature;BMP_pressure;BME280_temperature;BME280_humidity;BME280_pressure;Samples;Min_cycle;Max_cycle;Signal;HPM_P1;HPM_P2
2023/10/23 00:00:26;;;;;;;28.23;9.95;;;;;;;19.45;54.91;95083.97;5007849;28;20026;-88
2023/10/23 00:02:51;;;;;;;27.70;8.25;;;;;;;19.40;55.27;95079.09;5025158;28;20040;-88
2023/10/23 00:05:17;;;;;;;21.55;6.28;;;;;;;19.37;55.10;95086.41;5024613;28;20358;-88
2023/10/23 00:07:42;;;;;;;20.30;5.65;;;;;;;19.40;55.26;95095.06;5008354;28;20033;-88
2023/10/23 00:10:08;;;;;;;19.88;5.70;;;;;;;19.30;55.37;95091.66;5008077;28;20156;-87
2023/10/23 00:15:18;;;;;;;16.63;5.43;;;;;;;19.16;55.81;95081.38;5026289;28;20113;-87
2023/10/23 00:17:43;;;;;;;19.48;5.28;;;;;;;19.15;55.53;95091.75;5027874;28;20123;-88
2023/10/23 00:20:09;;;;;;;15.15;5.35;;;;;;;19.17;55.78;95094.81;5028728;28;20037;-88
2023/10/23 00:22:35;;;;;;;12.13;5.13;;;;;;;19.14;55.93;95092.25;5029195;28;20045;-88
2023/10/23 00:25:00;;;;;;;20.75;5.20;;;;;;;19.08;56.21;95094.97;5012248;28;20179;-88
2023/10/23 00:27:25;;;;;;;14.57;5.95;;;;;;;19.04;56.21;95100.00;5028250;28;20503;-89
2023/10/23 00:29:52;;;;;;;20.08;5.00;;;;;;;19.01;56.05;95090.59;5011915;28;20056;-87
2023/10/23 00:32:17;;;;;;;19.20;4.40;;;;;;;18.94;56.06;95101.38;5028190;28;20030;-87
2023/10/23 00:34:43;;;;;;;18.73;4.95;;;;;;;18.93;55.96;95097.84;5027954;28;20527;-88
2023/10/23 00:37:08;;;;;;;14.85;5.25;;;;;;;18.97;55.82;95098.38;5014338;28;20404;-88
2023/10/23 00:39:33;;;;;;;16.63;5.13;;;;;;;18.93;55.45;95089.47;5011347;28;20402;-89
2023/10/23 00:41:59;;;;;;;21.15;4.93;;;;;;;18.86;55.64;95087.09;5028514;28;20099;-88
2023/10/23 00:44:24;;;;;;;15.95;5.95;;;;;;;18.81;56.00;95080.22;5011168;28;20040;-89
2023/10/23 00:46:53;;;;;;;18.33;4.85;;;;;;;18.81;56.26;95091.38;5011628;28;20030;-88
2023/10/23 00:49:19;;;;;;;19.42;5.30;;;;;;;18.79;56.17;95088.28;5011711;28;20487;-90
2023/10/23 00:51:45;;;;;;;14.98;4.95;;;;;;;18.78;56.18;95092.31;5010952;28;20117;-89
2023/10/23 00:54:11;;;;;;;18.95;5.00;;;;;;;18.73;56.43;95089.47;5011191;28;20033;-89
2023/10/23 00:56:37;;;;;;;18.67;4.97;;;;;;;18.73;56.71;95087.44;5027402;28;20034;-90
2023/10/23 00:59:02;;;;;;;14.13;4.53;;;;;;;18.72;56.58;95085.16;5027935;28;20509;-89
2023/10/23 01:01:29;;;;;;;17.58;5.63;;;;;;;18.68;56.86;95090.16;5011199;28;20029;-90
2023/10/23 01:03:55;;;;;;;17.60;5.22;;;;;;;18.65;56.57;95088.34;5028215;28;20041;-90
2023/10/23 01:06:20;;;;;;;16.35;5.10;;;;;;;18.59;56.32;95088.25;5010926;28;20099;-90
2023/10/23 01:08:46;;;;;;;20.48;5.65;;;;;;;18.55;56.89;95084.91;5027396;28;20021;-89
2023/10/23 01:11:11;;;;;;;14.88;5.50;;;;;;;18.56;56.88;95086.44;5027647;28;20025;-90
2023/10/23 01:13:38;;;;;;;15.07;4.93;;;;;;;18.57;56.78;95083.16;5010693;28;20452;-88
2023/10/23 01:16:04;;;;;;;16.83;5.20;;;;;;;18.57;57.09;95087.97;5011056;28;20033;-88
2023/10/23 01:18:29;;;;;;;23.67;5.47;;;;;;;18.52;56.98;95083.88;5027109;28;20026;-89
2023/10/23 01:20:55;;;;;;;16.48;5.90;;;;;;;18.56;56.65;95089.97;5011019;28;20420;-88
2023/10/23 01:23:25;;;;;;;18.98;5.00;;;;;;;18.57;56.92;95090.75;5028401;28;20072;-87
2023/10/23 01:25:50;;;;;;;17.80;6.22;;;;;;;18.56;57.00;95087.19;5027468;28;20160;-89
2023/10/23 01:28:16;;;;;;;19.92;6.13;;;;;;;18.52;57.05;95081.09;5009899;28;20113;-88
2023/10/23 01:30:42;;;;;;;19.55;5.07;;;;;;;18.54;56.96;95077.81;5036186;28;20025;-88
2023/10/23 01:33:07;;;;;;;18.70;5.53;;;;;;;18.53;56.94;95084.63;5027871;28;20624;-87
2023/10/23 01:35:32;;;;;;;14.57;4.90;;;;;;;18.52;57.10;95083.09;5010323;28;20041;-89
2023/10/23 01:37:58;;;;;;;14.38;5.35;;;;;;;18.52;57.02;95083.88;5009282;28;20603;-86
2023/10/23 01:40:23;;;;;;;15.20;5.63;;;;;;;18.50;56.94;95078.00;5026172;28;20056;-87
2023/10/23 01:42:49;;;;;;;19.65;5.50;;;;;;;18.49;56.96;95084.06;5010014;28;20033;-87
2023/10/23 01:45:14;;;;;;;14.95;5.60;;;;;;;18.49;56.54;95076.47;5026353;28;20033;-88
2023/10/23 01:47:40;;;;;;;15.18;5.43;;;;;;;18.52;56.20;95081.09;5010063;28;20022;-87
2023/10/23 01:50:06;;;;;;;19.20;5.60;;;;;;;18.48;56.52;95085.31;5010595;28;20036;-88
2023/10/23 01:52:31;;;;;;;22.80;6.45;;;;;;;18.47;56.07;95078.22;5010110;28;20049;-89
2023/10/23 01:54:58;;;;;;;18.00;5.65;;;;;;;18.45;56.31;95087.03;5010292;28;20480;-88
2023/10/23 01:57:24;;;;;;;20.00;5.68;;;;;;;18.42;56.54;95081.69;5010259;28;20049;-87
2023/10/23 01:59:49;;;;;;;11.77;4.57;;;;;;;18.42;56.44;95071.31;5010337;28;20460;-87
2023/10/23 02:02:14;;;;;;;18.83;5.93;;;;;;;18.42;56.67;95081.69;5028323;28;20583;-88
2023/10/23 02:04:40;;;;;;;17.38;5.15;;;;;;;18.44;56.67;95087.53;5029189;28;20037;-88
2023/10/23 02:07:06;;;;;;;17.00;6.32;;;;;;;18.42;56.39;95088.03;5029102;28;20112;-88
2023/10/23 02:09:32;;;;;;;24.13;7.63;;;;;;;18.43;56.78;95092.34;5011359;28;20032;-89
2023/10/23 02:11:58;;;;;;;17.27;6.32;;;;;;;18.44;56.40;95084.75;5026775;28;20120;-87
2023/10/23 02:14:23;;;;;;;22.48;6.00;;;;;;;18.39;56.98;95088.97;5009675;28;20089;-87
2023/10/23 02:16:49;;;;;;;15.98;5.38;;;;;;;18.34;56.96;95084.09;5009850;28;20358;-86
2023/10/23 02:19:15;;;;;;;14.25;5.38;;;;;;;18.36;56.81;95086.41;5009540;28;20033;-86
2023/10/23 02:21:40;;;;;;;16.40;5.68;;;;;;;18.34;57.05;95088.91;5009960;28;20029;-88
2023/10/23 02:24:06;;;;;;;13.90;5.20;;;;;;;18.34;57.17;95094.47;5009554;28;20022;-88
2023/10/23 02:26:31;;;;;;;14.27;5.30;;;;;;;18.27;57.10;95092.84;5026130;28;20029;-88
2023/10/23 02:28:57;;;;;;;23.17;5.10;;;;;;;18.24;57.10;95091.81;5027811;28;20021;-87
2023/10/23 02:31:23;;;;;;;17.67;5.50;;;;;;;18.21;57.11;95090.00;5027883;28;20068;-89
2023/10/23 02:33:49;;;;;;;16.75;6.88;;;;;;;18.22;56.91;95085.97;5010424;28;20037;-90
2023/10/23 02:36:15;;;;;;;25.60;5.35;;;;;;;18.20;57.33;95101.63;5009406;28;20500;-88
2023/10/23 02:38:41;;;;;;;17.52;5.97;;;;;;;18.15;57.31;95083.59;5026607;28;20028;-87
2023/10/23 02:41:07;;;;;;;17.45;5.30;;;;;;;18.15;57.50;95091.16;5009534;28;20021;-88
2023/10/23 02:43:32;;;;;;;19.33;5.55;;;;;;;18.15;57.35;95093.94;5009656;28;20404;-88
2023/10/23 02:46:01;;;;;;;15.82;6.10;;;;;;;18.14;57.37;95084.84;5027415;28;20407;-88
2023/10/23 02:48:27;;;;;;;18.13;5.15;;;;;;;18.12;57.58;95090.13;5027479;28;20037;-89
2023/10/23 02:50:53;;;;;;;18.17;6.40;;;;;;;18.06;57.96;95089.25;5010136;28;20488;-88
2023/10/23 02:53:19;;;;;;;16.00;5.45;;;;;;;18.00;58.03;95091.19;5009441;28;20021;-88
2023/10/23 02:55:44;;;;;;;19.80;6.65;;;;;;;17.97;57.83;95092.16;5009582;28;20029;-89
2023/10/23 02:58:09;;;;;;;17.77;5.75;;;;;;;17.95;57.98;95100.19;5008833;28;20041;-88
2023/10/23 03:00:35;;;;;;;17.30;5.93;;;;;;;17.88;58.19;95092.25;5009654;28;20091;-88
2023/10/23 03:03:00;;;;;;;15.10;6.80;;;;;;;17.86;58.24;95089.97;5025790;28;20112;-88
2023/10/23 03:05:26;;;;;;;16.83;6.55;;;;;;;17.85;58.34;95107.91;5025938;28;20033;-88
2023/10/23 03:07:51;;;;;;;21.30;6.40;;;;;;;17.81;58.28;95103.78;5025797;28;20033;-88
2023/10/23 03:10:17;;;;;;;15.68;5.72;;;;;;;17.81;58.41;95107.31;5025373;28;20045;-87
2023/10/23 03:12:42;;;;;;;21.20;6.07;;;;;;;17.76;58.49;95105.97;5026182;28;20028;-88
2023/10/23 03:15:08;;;;;;;19.55;5.90;;;;;;;17.73;58.69;95103.41;5008465;28;20042;-88
2023/10/23 03:17:33;;;;;;;20.60;6.57;;;;;;;17.73;58.66;95104.16;5009380;28;20033;-88
2023/10/23 03:19:59;;;;;;;17.98;6.78;;;;;;;17.67;58.72;95100.50;5008566;28;20032;-88
2023/10/23 03:22:24;;;;;;;15.85;5.95;;;;;;;17.68;58.83;95102.03;5009341;28;20486;-88
2023/10/23 03:24:49;;;;;;;18.55;6.32;;;;;;;17.62;59.21;95098.38;5009003;28;20025;-89
2023/10/23 03:27:15;;;;;;;18.90;6.47;;;;;;;17.60;59.35;95103.63;5025487;28;20033;-88
2023/10/23 03:29:43;;;;;;;22.15;7.38;;;;;;;17.62;59.24;95105.94;5008944;28;20038;-88
2023/10/23 03:32:09;;;;;;;17.00;6.38;;;;;;;17.57;59.51;95103.84;5026166;28;20033;-86
2023/10/23 03:34:35;;;;;;;18.98;5.78;;;;;;;17.56;59.21;95105.09;5027456;28;20504;-87
2023/10/23 03:37:00;;;;;;;17.67;7.25;;;;;;;17.54;59.30;95100.00;5034076;28;20029;-88
2023/10/23 03:39:25;;;;;;;17.25;6.78;;;;;;;17.51;59.42;95103.75;5009623;28;20025;-88
2023/10/23 03:41:51;;;;;;;22.17;7.35;;;;;;;17.51;59.41;95104.50;5026863;28;20032;-87
2023/10/23 03:44:16;;;;;;;18.90;6.88;;;;;;;17.48;59.60;95111.00;5028957;28;20034;-89
2023/10/23 03:46:42;;;;;;;15.35;7.03;;;;;;;17.49;59.42;95114.56;5011144;28;20117;-90
2023/10/23 03:49:07;;;;;;;17.10;6.80;;;;;;;17.48;59.51;95116.56;5008932;28;20458;-88
2023/10/23 03:51:33;;;;;;;19.58;8.43;;;;;;;17.46;59.81;95105.16;5012745;28;20507;-90
2023/10/23 03:53:59;;;;;;;20.35;7.45;;;;;;;17.43;59.98;95095.03;5029108;28;20476;-90
2023/10/23 03:56:24;;;;;;;23.75;8.95;;;;;;;17.44;59.90;95109.69;5029110;28;20088;-91
2023/10/23 03:58:49;;;;;;;24.00;7.75;;;;;;;17.42;59.72;95103.81;5012362;28;20030;-89
2023/10/23 04:01:15;;;;;;;23.05;7.18;;;;;;;17.43;59.70;95106.13;5012276;28;20087;-87
2023/10/23 04:03:40;;;;;;;23.75;7.95;;;;;;;17.44;59.94;95112.47;5011962;28;20121;-89
2023/10/23 04:06:06;;;;;;;20.40;7.80;;;;;;;17.45;59.38;95117.53;5012306;28;20029;-88
2023/10/23 04:08:31;;;;;;;28.58;7.80;;;;;;;17.46;59.38;95118.31;5011887;28;20048;-90
2023/10/23 04:10:58;;;;;;;25.60;8.45;;;;;;;17.42;59.21;95103.81;5027462;28;20030;-88
2023/10/23 04:13:24;;;;;;;19.38;7.05;;;;;;;17.43;59.23;95113.69;5027879;28;20022;-88
2023/10/23 04:15:57;;;;;;;17.42;6.32;;;;;;;17.40;59.07;95107.09;5029441;28;20071;-88
2023/10/23 04:18:25;;;;;;;16.02;7.15;;;;;;;17.33;59.18;95101.16;5028603;28;20113;-89
2023/10/23 04:20:50;;;;;;;20.63;7.38;;;;;;;17.38;59.20;95109.59;5012221;28;20087;-89
2023/10/23 04:23:16;;;;;;;19.77;6.97;;;;;;;17.42;58.80;95115.69;5032123;28;20416;-88
2023/10/23 04:25:41;;;;;;;17.52;6.22;;;;;;;17.42;58.98;95110.13;5015013;28;20021;-89
2023/10/23 04:28:07;;;;;;;19.00;7.07;;;;;;;17.40;58.82;95112.63;5012165;28;20026;-89
2023/10/23 04:30:32;;;;;;;17.67;6.65;;;;;;;17.39;59.07;95118.69;5012185;28;20033;-88
2023/10/23 04:32:58;;;;;;;22.58;7.55;;;;;;;17.34;58.85;95119.34;5013091;28;20093;-89
2023/10/23 04:35:24;;;;;;;16.55;6.25;;;;;;;17.32;59.12;95117.06;5043372;28;20068;-89
2023/10/23 04:37:50;;;;;;;19.25;7.20;;;;;;;17.32;58.91;95119.03;5033659;28;20133;-89
2023/10/23 04:40:16;;;;;;;22.70;8.02;;;;;;;17.25;58.69;95120.94;5032056;28;20029;-88
2023/10/23 04:42:41;;;;;;;22.60;6.68;;;;;;;17.26;59.02;95118.94;5049482;28;20033;-91
2023/10/23 04:45:07;;;;;;;24.65;7.47;;;;;;;17.28;58.58;95116.47;5015343;28;20043;-91
2023/10/23 04:47:32;;;;;;;21.33;6.75;;;;;;;17.32;58.67;95132.94;5031386;28;20028;-91
2023/10/23 04:49:58;;;;;;;25.85;7.60;;;;;;;17.28;58.65;95122.00;5014602;28;20025;-91
2023/10/23 04:52:23;;;;;;;20.75;6.78;;;;;;;17.28;58.24;95132.38;5014635;28;20124;-91
2023/10/23 04:54:52;;;;;;;17.90;7.00;;;;;;;17.25;58.24;95129.28;5048926;28;20032;-91
2023/10/23 04:57:17;;;;;;;21.50;7.68;;;;;;;17.22;58.30;95129.47;5014866;28;20040;-90
2023/10/23 04:59:42;;;;;;;27.58;7.68;;;;;;;17.20;58.44;95127.19;5031127;28;20025;-89
2023/10/23 05:02:08;;;;;;;26.38;8.40;;;;;;;17.18;58.61;95124.09;5014497;28;20136;-88
2023/10/23 05:04:33;;;;;;;20.38;7.53;;;;;;;17.17;58.88;95125.34;5014331;28;20017;-88
2023/10/23 05:06:59;;;;;;;19.65;6.68;;;;;;;17.17;58.64;95136.44;5030674;28;20502;-89
2023/10/23 05:09:24;;;;;;;22.42;7.80;;;;;;;17.13;59.13;95132.31;5013982;28;20483;-87
2023/10/23 05:11:50;;;;;;;21.95;7.97;;;;;;;17.16;59.08;95148.81;5013872;28;20056;-88
2023/10/23 05:14:15;;;;;;;20.67;7.82;;;;;;;17.13;58.90;95146.97;5013451;28;20388;-88
2023/10/23 05:16:41;;;;;;;21.42;7.80;;;;;;;17.14;58.85;95131.84;5028449;28;20033;-88
2023/10/23 05:19:08;;;;;;;23.15;9.10;;;;;;;17.14;59.22;95148.50;5031501;28;20071;-88
2023/10/23 05:21:33;;;;;;;24.90;8.15;;;;;;;17.15;59.35;95149.28;5030344;28;20100;-89
2023/10/23 05:23:58;;;;;;;19.77;7.32;;;;;;;17.14;59.42;95148.50;5030800;28;20037;-90
2023/10/23 05:26:24;;;;;;;22.27;7.53;;;;;;;17.16;59.51;95154.38;5014017;28;20036;-89
2023/10/23 05:28:53;;;;;;;19.52;7.85;;;;;;;17.17;59.70;95157.91;5013907;28;20025;-89
2023/10/23 05:31:19;;;;;;;24.85;8.13;;;;;;;17.16;59.63;95150.81;5031004;28;20021;-89
2023/10/23 05:33:44;;;;;;;20.77;6.85;;;;;;;17.20;59.36;95160.53;5013929;28;20040;-88
2023/10/23 05:36:10;;;;;;;25.88;6.90;;;;;;;17.21;59.23;95153.72;5014543;28;20510;-87
2023/10/23 05:38:36;;;;;;;20.92;7.93;;;;;;;17.25;59.13;95156.28;5014162;28;20021;-88
2023/10/23 05:41:02;;;;;;;24.85;8.73;;;;;;;17.30;58.88;95152.09;5032053;28;20082;-88
2023/10/23 05:43:28;;;;;;;26.42;7.95;;;;;;;17.33;58.95;95148.38;5041809;28;20107;-88
2023/10/23 05:45:57;;;;;;;24.40;8.57;;;;;;;17.29;58.61;95137.44;5032673;28;20048;-89
2023/10/23 05:48:23;;;;;;;17.48;7.22;;;;;;;17.40;58.36;95148.75;5014011;28;20032;-87
2023/10/23 05:51:03;;;;;;;22.95;8.70;;;;;;;17.38;58.19;95151.25;5013458;28;20025;-88
2023/10/23 05:53:29;;;;;;;24.63;8.80;;;;;;;17.42;58.22;95162.94;5030159;28;20472;-88
2023/10/23 05:56:00;;;;;;;25.00;8.75;;;;;;;17.44;57.95;95163.25;5029602;28;20040;-88
2023/10/23 05:58:25;;;;;;;23.63;8.75;;;;;;;17.42;57.98;95162.94;5013953;28;20128;-88
2023/10/23 06:00:51;;;;;;;27.88;8.85;;;;;;;17.44;57.96;95174.38;5013228;28;20151;-89
2023/10/23 06:03:16;;;;;;;26.70;8.90;;;;;;;17.48;57.79;95180.50;5029908;28;20610;-89
2023/10/23 06:05:42;;;;;;;20.08;8.70;;;;;;;17.51;57.76;95181.56;5013472;28;20032;-89
2023/10/23 06:08:08;;;;;;;24.88;9.60;;;;;;;17.57;57.47;95176.88;5013215;28;20422;-89
2023/10/23 06:10:41;;;;;;;22.67;9.38;;;;;;;17.64;57.06;95182.06;5029860;28;20024;-89
2023/10/23 06:13:06;;;;;;;28.45;10.32;;;;;;;17.61;57.41;95182.25;5029438;28;20159;-89
2023/10/23 06:15:32;;;;;;;25.20;9.48;;;;;;;17.66;57.36;95187.91;5013550;28;20386;-90
2023/10/23 06:17:57;;;;;;;26.77;10.32;;;;;;;17.68;57.13;95185.41;5034296;28;20214;-90
2023/10/23 06:20:23;;;;;;;26.08;9.43;;;;;;;17.71;56.97;95180.91;5016170;28;20025;-89
2023/10/23 06:22:48;;;;;;;32.40;11.55;;;;;;;17.73;56.87;95184.03;5014355;28;20108;-90
2023/10/23 06:25:14;;;;;;;25.63;10.68;;;;;;;17.73;56.89;95193.13;5013152;28;20048;-89
2023/10/23 06:27:39;;;;;;;27.77;9.48;;;;;;;17.80;56.68;95196.78;5013300;28;20044;-89
2023/10/23 06:30:05;;;;;;;33.15;10.10;;;;;;;17.79;56.47;95193.22;5013188;28;20044;-90
2023/10/23 06:32:34;;;;;;;29.27;9.98;;;;;;;17.84;57.05;95194.59;5030011;28;20107;-89
2023/10/23 06:34:59;;;;;;;26.30;9.55;;;;;;;17.89;56.67;95202.22;5029721;28;20612;-89
2023/10/23 06:37:24;;;;;;;29.67;9.30;;;;;;;17.88;56.76;95192.38;5029738;28;20104;-89
2023/10/23 06:39:50;;;;;;;24.95;8.82;;;;;;;17.90;56.98;95198.22;5029326;28;20031;-89
2023/10/23 06:42:15;;;;;;;23.98;9.23;;;;;;;17.93;57.21;95202.81;5012383;28;20032;-89
2023/10/23 06:44:41;;;;;;;24.17;9.77;;;;;;;18.00;57.11;95202.44;5012813;28;20073;-88
2023/10/23 06:47:07;;;;;;;23.95;8.98;;;;;;;18.04;56.80;95203.00;5012747;28;20056;-89
2023/10/23 06:49:32;;;;;;;25.52;9.85;;;;;;;18.08;56.90;95197.28;5013289;28;20495;-89
2023/10/23 06:51:59;;;;;;;23.15;8.70;;;;;;;18.21;56.92;95206.09;4995873;28;20122;-89
2023/10/23 06:54:26;;;;;;;31.45;9.23;;;;;;;18.26;56.77;95216.53;5029611;28;20116;-88
2023/10/23 06:56:52;;;;;;;20.65;9.07;;;;;;;18.33;56.66;95224.50;5012767;28;20392;-87
2023/10/23 06:59:18;;;;;;;26.23;8.95;;;;;;;18.36;56.71;95223.56;5011393;28;20550;-87
2023/10/23 07:01:43;;;;;;;22.45;8.77;;;;;;;18.43;56.30;95220.38;5028454;28;20057;-88
2023/10/23 07:04:09;;;;;;;20.90;8.68;;;;;;;18.47;56.20;95222.97;5028040;28;20049;-88
2023/10/23 07:06:34;;;;;;;20.80;8.68;;;;;;;18.52;56.44;95231.41;5012733;28;20075;-88
2023/10/23 07:09:00;;;;;;;21.90;8.23;;;;;;;18.56;56.11;95228.41;5028682;28;20423;-89
2023/10/23 07:11:25;;;;;;;26.02;7.93;;;;;;;18.62;56.00;95225.72;5012686;28;20029;-86
2023/10/23 07:13:51;;;;;;;21.23;8.40;;;;;;;18.67;55.72;95219.47;5027958;28;20025;-87
2023/10/23 07:16:17;;;;;;;22.83;7.82;;;;;;;18.71;55.73;95220.06;5011560;28;20095;-87
2023/10/23 07:18:42;;;;;;;20.33;7.75;;;;;;;18.77;55.37;95223.72;5011683;28;20033;-88
2023/10/23 07:21:08;;;;;;;25.35;8.35;;;;;;;18.82;55.23;95223.78;5027595;28;20033;-87
2023/10/23 07:23:34;;;;;;;22.67;9.88;;;;;;;18.81;54.91;95221.50;5011921;28;20029;-86
2023/10/23 07:26:07;;;;;;;21.40;7.85;;;;;;;18.85;55.07;95224.81;5013451;28;20036;-88
2023/10/23 07:28:33;;;;;;;19.65;6.97;;;;;;;18.87;55.12;95221.56;5033591;28;20029;-89
2023/10/23 07:31:01;;;;;;;22.40;8.48;;;;;;;18.90;55.06;95224.16;5031703;28;20032;-88
2023/10/23 07:33:26;;;;;;;24.48;7.88;;;;;;;18.89;55.20;95222.63;5015986;28;20032;-88
2023/10/23 07:36:18;;;;;;;19.20;7.72;;;;;;;18.96;54.85;95216.63;5015370;28;20415;-87
2023/10/23 07:38:44;;;;;;;21.75;8.43;;;;;;;19.03;54.94;95215.44;5015274;28;20048;-87
2023/10/23 07:41:11;;;;;;;19.92;7.72;;;;;;;19.02;54.76;95214.69;5015460;28;20021;-88
2023/10/23 07:43:37;;;;;;;23.23;7.68;;;;;;;19.16;54.61;95215.13;5032116;28;20079;-88
2023/10/23 07:46:06;;;;;;;18.40;8.43;;;;;;;19.24;54.41;95213.47;5032407;28;20040;-87
2023/10/23 07:48:32;;;;;;;27.70;8.27;;;;;;;19.28;54.17;95211.25;5041880;28;20025;-88
2023/10/23 07:50:58;;;;;;;21.95;9.15;;;;;;;19.27;54.37;95215.28;5015812;28;20028;-89
2023/10/23 07:53:24;;;;;;;20.27;8.18;;;;;;;19.26;54.24;95210.94;5031331;28;20029;-80
2023/10/23 07:55:49;;;;;;;28.38;8.48;;;;;;;19.36;53.94;95217.91;5014445;28;20025;-85
2023/10/23 07:58:15;;;;;;;19.73;8.82;;;;;;;19.42;53.66;95204.81;5031686;28;20047;-89
2023/10/23 08:00:41;;;;;;;19.90;9.38;;;;;;;19.47;53.49;95215.25;5031115;28;20642;-86
2023/10/23 08:03:06;;;;;;;21.98;8.05;;;;;;;19.57;53.35;95213.09;5014984;28;20115;-84
2023/10/23 08:05:32;;;;;;;29.58;9.13;;;;;;;19.67;52.84;95208.94;5014569;28;20028;-87
2023/10/23 08:07:57;;;;;;;26.48;8.57;;;;;;;19.79;52.60;95209.84;5015005;28;20033;-87
2023/10/23 08:10:23;;;;;;;23.77;9.93;;;;;;;19.96;52.16;95221.16;5014844;28;20021;-87
2023/10/23 08:12:48;;;;;;;26.25;10.10;;;;;;;20.12;51.98;95214.97;5020441;28;20052;-85
2023/10/23 08:15:14;;;;;;;23.38;9.23;;;;;;;20.33;51.35;95208.06;5049555;28;20353;-87
2023/10/23 08:17:40;;;;;;;23.90;9.10;;;;;;;20.66;50.09;95210.38;5014306;28;20052;-82
2023/10/23 08:20:07;;;;;;;20.73;8.98;;;;;;;20.97;49.69;95219.22;5014416;28;20025;-85
2023/10/23 08:22:33;;;;;;;22.98;9.13;;;;;;;21.24;49.09;95212.25;5030642;28;20091;-83
2023/10/23 08:24:59;;;;;;;29.33;10.65;;;;;;;21.48;48.30;95209.84;5030846;28;20070;-87
2023/10/23 08:27:24;;;;;;;30.27;12.10;;;;;;;21.99;47.10;95210.78;5013805;28;20041;-87
2023/10/23 08:29:50;;;;;;;21.77;7.75;;;;;;;22.34;46.12;95215.94;5030352;28;20436;-83
2023/10/23 08:32:16;;;;;;;24.05;8.25;;;;;;;22.60;45.06;95214.97;5030323;28;20025;-86
2023/10/23 08:34:42;;;;;;;27.15;7.80;;;;;;;22.55;44.64;95198.91;5027458;28;20053;-85
2023/10/23 08:37:07;;;;;;;31.70;8.93;;;;;;;22.66;44.88;95207.31;5026610;28;20057;-85
2023/10/23 08:39:33;;;;;;;27.80;8.85;;;;;;;23.22;43.54;95210.03;5010414;28;20033;-84
2023/10/23 08:42:00;;;;;;;23.20;7.10;;;;;;;24.44;40.89;95210.00;5027096;28;20470;-82
2023/10/23 08:44:26;;;;;;;17.50;7.53;;;;;;;25.23;39.38;95222.06;5026569;28;20033;-84
2023/10/23 08:46:51;;;;;;;17.42;5.97;;;;;;;26.54;36.88;95206.59;5010632;28;20025;-84
2023/10/23 08:49:17;;;;;;;20.00;6.28;;;;;;;27.55;34.53;95199.22;5010050;28;20064;-84
2023/10/23 08:51:45;;;;;;;24.85;7.63;;;;;;;28.46;33.54;95207.31;5026874;28;20026;-85
2023/10/23 08:54:17;;;;;;;21.83;6.97;;;;;;;29.31;31.82;95207.53;5010266;28;20033;-81
2023/10/23 08:56:43;;;;;;;20.10;7.05;;;;;;;30.13;30.31;95205.00;5009448;28;20065;-80
2023/10/23 08:59:10;;;;;;;21.35;6.93;;;;;;;31.05;29.57;95207.28;5026408;28;20065;-81
2023/10/23 09:01:36;;;;;;;22.90;6.47;;;;;;;31.87;27.71;95209.84;5026474;28;20069;-81
2023/10/23 09:04:02;;;;;;;27.10;7.05;;;;;;;32.72;27.01;95208.16;5026773;28;20510;-81
2023/10/23 09:06:27;;;;;;;23.08;6.40;;;;;;;33.38;25.51;95206.72;5009484;28;20125;-82
2023/10/23 09:08:53;;;;;;;24.42;7.15;;;;;;;33.85;25.04;95207.78;5009722;28;20026;-83
2023/10/23 09:11:19;;;;;;;21.65;5.90;;;;;;;34.49;24.16;95205.91;5009557;28;20033;-80
2023/10/23 09:13:44;;;;;;;21.27;5.85;;;;;;;35.10;23.62;95202.19;5026189;28;20065;-80
2023/10/23 09:16:10;;;;;;;24.20;6.47;;;;;;;35.69;22.87;95202.34;5009698;28;20039;-82
2023/10/23 09:18:51;;;;;;;17.45;5.85;;;;;;;35.78;22.93;95201.59;5025641;28;20040;-81
2023/10/23 09:21:17;;;;;;;17.95;5.65;;;;;;;36.34;22.08;95198.59;5010057;28;20025;-82
2023/10/23 09:23:56;;;;;;;21.90;6.68;;;;;;;37.03;21.17;95200.72;5026342;28;20428;-83
2023/10/23 09:26:22;;;;;;;18.98;6.30;;;;;;;37.64;20.56;95192.75;5026125;28;20026;-82
2023/10/23 09:28:49;;;;;;;18.67;6.00;;;;;;;38.24;20.02;95203.91;5009737;28;20025;-81
2023/10/23 09:31:15;;;;;;;15.80;5.60;;;;;;;38.59;19.73;95200.44;5009279;28;20022;-83
2023/10/23 09:33:41;;;;;;;22.15;6.18;;;;;;;38.94;19.10;95189.81;5009831;28;20408;-82
2023/10/23 09:36:09;;;;;;;19.73;5.93;;;;;;;39.05;18.83;95186.16;5025683;28;20514;-85
2023/10/23 09:38:35;;;;;;;18.58;5.65;;;;;;;38.57;19.19;95188.81;5025957;28;20030;-83
2023/10/23 09:41:01;;;;;;;17.50;5.45;;;;;;;38.20;19.54;95192.19;5027274;28;20064;-85
2023/10/23 09:43:26;;;;;;;19.70;6.03;;;;;;;37.78;20.15;95182.22;5009152;28;20455;-84
2023/10/23 09:45:52;;;;;;;18.48;5.97;;;;;;;37.04;20.90;95184.28;5025704;28;20064;-84
2023/10/23 09:48:19;;;;;;;20.10;6.90;;;;;;;36.36;21.59;95179.47;5008227;28;20025;-85
2023/10/23 09:50:48;;;;;;;19.73;5.72;;;;;;;36.28;22.24;95169.53;5009535;28;20032;-83
2023/10/23 09:53:16;;;;;;;17.83;5.72;;;;;;;35.67;23.11;95171.47;5025483;28;20021;-83
2023/10/23 09:55:44;;;;;;;28.33;7.13;;;;;;;35.16;23.09;95176.19;5008979;28;20472;-84
2023/10/23 09:58:14;;;;;;;15.98;5.88;;;;;;;36.65;21.95;95172.97;5009089;28;20376;-85
2023/10/23 10:00:46;;;;;;;15.88;6.00;;;;;;;37.58;21.14;95172.25;5026515;28;20159;-87
2023/10/23 10:03:12;;;;;;;17.42;6.15;;;;;;;38.00;20.66;95172.25;5009243;28;20033;-82
2023/10/23 10:05:58;;;;;;;22.27;5.90;;;;;;;38.52;19.92;95164.84;5008719;28;20030;-80
2023/10/23 10:08:24;;;;;;;19.55;4.97;;;;;;;37.36;20.72;95157.16;5009179;28;20049;-84
2023/10/23 10:10:50;;;;;;;17.67;5.65;;;;;;;37.04;21.57;95159.25;5025403;28;20026;-83
2023/10/23 10:13:16;;;;;;;16.75;5.25;;;;;;;36.34;22.51;95158.53;5025786;28;20083;-83
2023/10/23 10:15:43;;;;;;;18.63;6.60;;;;;;;35.62;23.11;95147.56;5025322;28;20033;-83
2023/10/23 10:18:09;;;;;;;20.38;6.70;;;;;;;34.93;23.06;95148.00;5025266;28;20044;-79
2023/10/23 10:20:36;;;;;;;22.50;7.43;;;;;;;34.19;24.24;95134.97;5025017;28;20034;-79
2023/10/23 10:23:08;;;;;;;26.15;7.43;;;;;;;33.47;25.08;95132.00;5008653;28;20029;-79
2023/10/23 10:25:35;;;;;;;20.65;6.53;;;;;;;32.76;25.84;95125.97;5008512;28;20038;-79
2023/10/23 10:28:05;;;;;;;19.67;6.05;;;;;;;32.24;26.94;95134.25;5024964;28;20103;-81
2023/10/23 10:30:40;;;;;;;18.58;6.10;;;;;;;31.65;27.25;95124.06;5024773;28;20025;-80
2023/10/23 10:33:08;;;;;;;23.75;5.90;;;;;;;31.32;28.22;95123.22;5025131;28;20491;-80
2023/10/23 10:35:34;;;;;;;19.58;6.43;;;;;;;31.25;27.58;95126.81;5024151;28;20065;-82
2023/10/23 10:38:00;;;;;;;22.35;6.47;;;;;;;31.04;28.20;95124.19;5024834;28;20056;-81
2023/10/23 10:40:26;;;;;;;17.38;5.32;;;;;;;30.81;28.94;95124.22;5024545;28;20036;-82
2023/10/23 10:42:51;;;;;;;17.55;6.75;;;;;;;31.22;28.26;95125.13;5025075;28;20515;-82
2023/10/23 10:45:17;;;;;;;25.35;6.30;;;;;;;33.25;25.68;95122.31;5025769;28;20037;-84
2023/10/23 10:47:46;;;;;;;19.17;5.75;;;;;;;32.98;26.65;95110.81;5024735;28;20524;-82
2023/10/23 10:50:12;;;;;;;20.67;6.07;;;;;;;34.72;23.90;95119.94;5026301;28;20057;-83
2023/10/23 10:52:43;;;;;;;19.83;5.13;;;;;;;36.05;23.01;95102.13;5007864;28;20029;-82
2023/10/23 10:55:10;;;;;;;18.70;5.32;;;;;;;37.23;21.79;95109.69;5024418;28;20088;-81
2023/10/23 10:57:39;;;;;;;24.73;6.47;;;;;;;38.16;20.10;95100.81;5023946;28;20037;-79
2023/10/23 11:00:05;;;;;;;21.77;7.70;;;;;;;39.02;18.81;95091.84;5024615;28;20404;-81
2023/10/23 11:02:31;;;;;;;18.13;5.38;;;;;;;39.93;17.54;95093.66;5024273;28;20506;-82
2023/10/23 11:04:56;;;;;;;16.75;4.00;;;;;;;40.61;16.50;95089.56;5024294;28;20029;-82
2023/10/23 11:07:23;;;;;;;17.02;4.40;;;;;;;41.25;16.19;95094.44;5007191;28;20033;-82
2023/10/23 11:09:49;;;;;;;19.20;4.60;;;;;;;42.06;15.40;95085.56;5025560;28;20029;-82
2023/10/23 11:12:17;;;;;;;19.85;4.55;;;;;;;42.66;14.10;95089.88;5024532;28;20056;-86
2023/10/23 11:14:43;;;;;;;13.85;3.95;;;;;;;42.96;14.62;95078.97;5024814;28;20087;-79
2023/10/23 11:17:08;;;;;;;20.08;4.88;;;;;;;43.49;13.82;95077.72;5007857;28;20037;-83
2023/10/23 11:19:33;;;;;;;14.68;4.50;;;;;;;42.67;13.73;95079.81;5007267;28;20036;-83
2023/10/23 11:22:09;;;;;;;20.45;4.82;;;;;;;40.78;15.36;95068.16;5007597;28;20476;-83